createdAt,value
2018-07-23T00:00:41.612Z,53.78
2018-07-23T00:01:45.020Z,54.15
2018-07-23T00:02:48.508Z,54.37
2018-07-23T00:03:51.884Z,53.96
2018-07-23T00:04:55.273Z,53.33
2018-07-23T00:05:58.681Z,53.67
2018-07-23T00:07:02.079Z,54.10
2018-07-23T00:08:05.525Z,54.53
2018-07-23T00:09:09.117Z,53.49
2018-07-23T00:10:12.518Z,53.98
2018-07-23T00:11:15.910Z,54.21
2018-07-23T00:12:19.350Z,54.33
2018-07-23T00:13:22.744Z,53.97
2018-07-23T00:14:26.144Z,53.70
2018-07-23T00:15:29.566Z,54.04
2018-07-23T00:16:32.946Z,53.79
2018-07-23T00:17:36.379Z,54.92
2018-07-23T00:18:39.778Z,54.49
2018-07-23T00:19:43.197Z,54.61
2018-07-23T00:20:46.617Z,54.55
2018-07-23T00:21:50.014Z,54.63
2018-07-23T00:22:53.427Z,54.29
2018-07-23T00:23:56.840Z,55.16
2018-07-23T00:25:00.232Z,54.23
2018-07-23T00:26:03.651Z,54.85
2018-07-23T00:27:07.153Z,54.81
2018-07-23T00:28:10.552Z,54.75
2018-07-23T00:29:13.974Z,55.08
2018-07-23T00:30:17.400Z,55.03
2018-07-23T00:31:20.843Z,55.22
2018-07-23T00:32:24.225Z,55.08
2018-07-23T00:33:27.594Z,54.68
2018-07-23T00:34:30.976Z,54.76
2018-07-23T00:35:34.394Z,55.24
2018-07-23T00:36:37.803Z,54.85
2018-07-23T00:37:41.219Z,55.20
2018-07-23T00:38:44.629Z,54.44
2018-07-23T00:39:48.036Z,54.63
2018-07-23T00:40:51.439Z,55.42
2018-07-23T00:41:54.871Z,54.92
2018-07-23T00:42:58.294Z,55.01
2018-07-23T00:44:01.693Z,54.90
2018-07-23T00:45:05.153Z,55.05
2018-07-23T00:46:08.572Z,55.37
2018-07-23T00:47:12.089Z,54.74
2018-07-23T00:48:15.469Z,55.71
2018-07-23T00:49:18.857Z,55.75
2018-07-23T00:50:22.242Z,55.46
2018-07-23T00:51:25.720Z,55.28
2018-07-23T00:52:29.152Z,55.63
2018-07-23T00:53:32.538Z,55.26
2018-07-23T00:54:35.925Z,54.65
2018-07-23T00:55:39.320Z,55.01
2018-07-23T00:56:42.712Z,54.90
2018-07-23T00:57:46.117Z,54.68
2018-07-23T00:58:49.518Z,55.41
2018-07-23T00:59:52.908Z,54.96
2018-07-23T01:00:56.318Z,55.16
2018-07-23T01:01:59.713Z,54.85
2018-07-23T01:03:05.965Z,55.34
2018-07-23T01:04:09.388Z,54.73
2018-07-23T01:05:12.780Z,54.70
2018-07-23T01:06:16.173Z,55.37
2018-07-23T01:07:19.588Z,54.95
2018-07-23T01:08:22.995Z,55.07
2018-07-23T01:09:26.408Z,54.94
2018-07-23T01:10:29.840Z,54.72
2018-07-23T01:11:33.260Z,54.32
2018-07-23T01:12:36.652Z,54.76
2018-07-23T01:13:40.082Z,54.52
2018-07-23T01:14:43.507Z,54.63
2018-07-23T01:15:46.909Z,54.77
2018-07-23T01:16:50.290Z,54.59
2018-07-23T01:17:53.716Z,54.20
2018-07-23T01:18:57.152Z,54.38
2018-07-23T01:20:00.832Z,55.08
2018-07-23T01:21:04.263Z,54.37
2018-07-23T01:22:07.661Z,54.67
2018-07-23T01:23:11.034Z,54.95
2018-07-23T01:24:14.444Z,53.97
2018-07-23T01:25:17.851Z,54.87
2018-07-23T01:26:21.284Z,54.91
2018-07-23T01:27:24.921Z,54.54
2018-07-23T01:28:28.354Z,54.57
2018-07-23T01:29:31.824Z,54.87
2018-07-23T01:30:35.240Z,54.49
2018-07-23T01:31:38.624Z,54.44
2018-07-23T01:32:42.030Z,54.29
2018-07-23T01:33:45.454Z,54.35
2018-07-23T01:34:48.918Z,54.73
2018-07-23T01:35:52.320Z,54.31
2018-07-23T01:36:55.709Z,54.70
2018-07-23T01:37:59.108Z,54.67
2018-07-23T01:39:02.537Z,54.21
2018-07-23T01:40:06.086Z,53.89
2018-07-23T01:41:09.465Z,54.22
2018-07-23T01:42:13.043Z,54.30
2018-07-23T01:43:16.440Z,53.70
2018-07-23T01:44:19.828Z,53.90
2018-07-23T01:45:23.279Z,54.29
2018-07-23T01:46:26.687Z,54.50
2018-07-23T01:47:30.073Z,53.71
2018-07-23T01:48:33.464Z,54.14
2018-07-23T01:49:36.870Z,53.79
2018-07-23T01:50:40.279Z,54.60
2018-07-23T01:51:43.668Z,54.30
2018-07-23T01:52:47.093Z,54.26
2018-07-23T01:53:50.513Z,53.68
2018-07-23T01:54:53.913Z,53.85
2018-07-23T01:55:57.414Z,53.66
2018-07-23T01:57:00.844Z,53.84
2018-07-23T01:58:04.232Z,54.33
2018-07-23T01:59:07.637Z,54.17
2018-07-23T02:00:11.116Z,54.64
2018-07-23T02:01:14.578Z,54.05
2018-07-23T02:02:17.976Z,54.00
2018-07-23T02:03:21.532Z,54.46
2018-07-23T02:04:24.979Z,54.36
2018-07-23T02:05:28.385Z,54.26
2018-07-23T02:06:31.799Z,53.53
2018-07-23T02:07:35.265Z,54.49
2018-07-23T02:08:38.728Z,54.06
2018-07-23T02:09:42.140Z,54.33
2018-07-23T02:10:45.566Z,53.62
2018-07-23T02:11:48.965Z,54.09
2018-07-23T02:12:52.475Z,53.92
2018-07-23T02:13:55.866Z,54.35
2018-07-23T02:14:59.269Z,54.07
2018-07-23T02:16:02.689Z,54.19
2018-07-23T02:17:06.399Z,54.35
2018-07-23T02:18:09.849Z,53.95
2018-07-23T02:19:13.268Z,53.78
2018-07-23T02:20:16.654Z,54.23
2018-07-23T02:21:20.071Z,54.00
2018-07-23T02:22:23.516Z,54.29
2018-07-23T02:23:26.932Z,53.89
2018-07-23T02:24:30.315Z,54.55
2018-07-23T02:25:33.788Z,54.12
2018-07-23T02:26:37.207Z,54.27
2018-07-23T02:27:40.605Z,54.02
2018-07-23T02:28:43.989Z,54.15
2018-07-23T02:29:47.408Z,54.33
2018-07-23T02:30:50.838Z,53.99
2018-07-23T02:31:54.225Z,53.91
2018-07-23T02:32:57.627Z,54.48
2018-07-23T02:34:01.028Z,53.96
2018-07-23T02:35:04.530Z,54.08
2018-07-23T02:36:08.121Z,53.66
2018-07-23T02:37:11.531Z,53.77
2018-07-23T02:38:14.937Z,53.73
2018-07-23T02:39:18.349Z,53.94
2018-07-23T02:40:21.726Z,54.09
2018-07-23T02:41:25.133Z,54.05
2018-07-23T02:42:28.561Z,53.69
2018-07-23T02:43:31.970Z,53.85
2018-07-23T02:44:35.455Z,53.93
2018-07-23T02:45:39.024Z,54.09
2018-07-23T02:46:42.486Z,53.75
2018-07-23T02:47:45.872Z,54.50
2018-07-23T02:48:49.283Z,54.53
2018-07-23T02:49:52.693Z,54.21
2018-07-23T02:50:56.069Z,54.59
2018-07-23T02:51:59.469Z,53.97
2018-07-23T02:53:02.876Z,54.19
2018-07-23T02:54:06.339Z,54.11
2018-07-23T02:55:09.786Z,53.77
2018-07-23T02:56:13.209Z,54.28
2018-07-23T02:57:16.604Z,53.69
2018-07-23T02:58:20.000Z,54.17
2018-07-23T02:59:23.403Z,54.21
2018-07-23T03:00:26.794Z,54.02
2018-07-23T03:01:30.177Z,54.62
2018-07-23T03:02:33.617Z,54.06
2018-07-23T03:03:37.033Z,54.30
2018-07-23T03:04:40.471Z,53.88
2018-07-23T03:05:43.864Z,54.22
2018-07-23T03:06:47.257Z,54.31
2018-07-23T03:07:50.643Z,53.89
2018-07-23T03:08:54.056Z,53.76
2018-07-23T03:09:57.488Z,54.20
2018-07-23T03:11:01.083Z,54.15
2018-07-23T03:12:04.520Z,54.18
2018-07-23T03:13:08.331Z,53.84
2018-07-23T03:14:11.714Z,54.40
2018-07-23T03:15:15.398Z,53.98
2018-07-23T03:16:19.473Z,53.78
2018-07-23T03:17:22.918Z,54.70
2018-07-23T03:18:26.294Z,54.43
2018-07-23T03:19:29.696Z,54.60
2018-07-23T03:20:33.345Z,54.09
2018-07-23T03:21:36.795Z,54.69
2018-07-23T03:22:40.180Z,54.75
2018-07-23T03:23:43.603Z,54.44
2018-07-23T03:24:47.017Z,54.79
2018-07-23T03:25:50.455Z,54.56
2018-07-23T03:26:53.874Z,54.46
2018-07-23T03:27:57.242Z,54.70
2018-07-23T03:29:00.626Z,54.57
2018-07-23T03:30:04.505Z,54.63
2018-07-23T03:31:08.178Z,54.06
2018-07-23T03:32:11.568Z,54.18
2018-07-23T03:33:14.976Z,54.74
2018-07-23T03:34:18.447Z,54.60
2018-07-23T03:35:21.885Z,54.06
2018-07-23T03:36:25.312Z,54.60
2018-07-23T03:37:28.716Z,53.86
2018-07-23T03:38:32.140Z,54.16
2018-07-23T03:39:35.505Z,54.01
2018-07-23T03:40:38.921Z,54.52
2018-07-23T03:41:42.435Z,54.59
2018-07-23T03:42:45.855Z,54.16
2018-07-23T03:43:49.246Z,54.21
2018-07-23T03:44:52.680Z,54.24
2018-07-23T03:45:56.076Z,54.23
2018-07-23T03:46:59.572Z,54.03
2018-07-23T03:48:02.989Z,54.48
2018-07-23T03:49:06.932Z,54.14
2018-07-23T03:50:10.355Z,54.63
2018-07-23T03:51:13.774Z,54.15
2018-07-23T03:52:17.226Z,54.07
2018-07-23T03:53:20.648Z,53.84
2018-07-23T03:54:24.071Z,54.13
2018-07-23T03:55:27.438Z,54.47
2018-07-23T03:56:30.863Z,54.00
2018-07-23T03:57:34.304Z,54.16
2018-07-23T03:58:37.820Z,53.98
2018-07-23T03:59:41.224Z,54.04
2018-07-23T04:00:44.624Z,54.15
2018-07-23T04:01:48.061Z,53.98
2018-07-23T04:02:51.473Z,54.14
2018-07-23T04:03:54.884Z,54.15
2018-07-23T04:04:58.306Z,54.37
2018-07-23T04:06:01.738Z,53.92
2018-07-23T04:07:05.184Z,53.65
2018-07-23T04:08:08.600Z,54.14
2018-07-23T04:09:11.994Z,54.04
2018-07-23T04:10:15.415Z,54.96
2018-07-23T04:11:18.804Z,54.28
2018-07-23T04:12:22.224Z,53.93
2018-07-23T04:13:25.637Z,53.98
2018-07-23T04:14:29.348Z,54.32
2018-07-23T04:15:32.771Z,54.16
2018-07-23T04:16:36.252Z,53.59
2018-07-23T04:17:39.623Z,53.96
2018-07-23T04:18:43.044Z,53.63
2018-07-23T04:19:46.443Z,53.80
2018-07-23T04:20:49.849Z,54.18
2018-07-23T04:21:53.274Z,54.66
2018-07-23T04:22:56.662Z,54.46
2018-07-23T04:24:00.088Z,54.63
2018-07-23T04:25:03.510Z,53.64
2018-07-23T04:26:06.930Z,54.32
2018-07-23T04:27:10.458Z,54.37
2018-07-23T04:28:13.833Z,54.14
2018-07-23T04:29:17.229Z,54.05
2018-07-23T04:30:20.671Z,54.14
2018-07-23T04:31:24.057Z,54.36
2018-07-23T04:32:27.472Z,54.24
2018-07-23T04:33:30.869Z,54.54
2018-07-23T04:34:34.293Z,54.36
2018-07-23T04:35:37.711Z,54.41
2018-07-23T04:36:41.107Z,54.87
2018-07-23T04:37:44.541Z,54.00
2018-07-23T04:38:47.922Z,54.27
2018-07-23T04:39:51.368Z,54.60
2018-07-23T04:40:54.786Z,54.34
2018-07-23T04:41:58.215Z,54.42
2018-07-23T04:43:01.618Z,54.47
2018-07-23T04:44:05.034Z,54.65
2018-07-23T04:45:08.458Z,54.93
2018-07-23T04:46:11.850Z,54.48
2018-07-23T04:47:15.257Z,54.08
2018-07-23T04:48:18.645Z,54.08
2018-07-23T04:49:22.084Z,54.22
2018-07-23T04:50:25.511Z,54.16
2018-07-23T04:51:28.932Z,54.49
2018-07-23T04:52:32.344Z,54.92
2018-07-23T04:53:35.783Z,54.97
2018-07-23T04:54:39.159Z,55.09
2018-07-23T04:55:42.555Z,54.20
2018-07-23T04:56:45.956Z,55.10
2018-07-23T04:57:49.340Z,54.18
2018-07-23T04:58:52.756Z,54.59
2018-07-23T04:59:56.148Z,54.97
2018-07-23T05:00:59.603Z,55.07
2018-07-23T05:02:03.023Z,54.19
2018-07-23T05:03:06.452Z,54.77
2018-07-23T05:04:09.871Z,55.14
2018-07-23T05:05:13.248Z,55.11
2018-07-23T05:06:16.649Z,54.83
2018-07-23T05:07:20.156Z,54.80
2018-07-23T05:08:23.587Z,54.17
2018-07-23T05:09:26.994Z,55.00
2018-07-23T05:10:30.418Z,54.66
2018-07-23T05:11:33.865Z,54.99
2018-07-23T05:12:37.302Z,55.07
2018-07-23T05:13:40.739Z,54.27
2018-07-23T05:14:44.138Z,54.35
2018-07-23T05:15:47.551Z,54.67
2018-07-23T05:16:50.975Z,54.60
2018-07-23T05:17:54.401Z,54.31
2018-07-23T05:18:57.832Z,54.70
2018-07-23T05:20:01.218Z,54.03
2018-07-23T05:21:04.635Z,53.03
2018-07-23T05:22:08.110Z,52.13
2018-07-23T05:23:11.567Z,51.93
2018-07-23T05:24:14.982Z,51.92
2018-07-23T05:25:18.388Z,51.34
2018-07-23T05:26:21.785Z,51.70
2018-07-23T05:27:25.282Z,51.03
2018-07-23T05:28:28.864Z,51.18
2018-07-23T05:29:32.260Z,51.07
2018-07-23T05:30:35.717Z,50.86
2018-07-23T05:31:39.241Z,51.23
2018-07-23T05:32:42.660Z,51.16
2018-07-23T05:33:46.072Z,50.68
2018-07-23T05:34:49.458Z,51.45
2018-07-23T05:35:52.872Z,50.68
2018-07-23T05:36:56.783Z,51.00
2018-07-23T05:38:00.228Z,50.65
2018-07-23T05:39:04.100Z,51.22
2018-07-23T05:40:07.727Z,51.17
2018-07-23T05:41:11.255Z,51.17
2018-07-23T05:42:14.786Z,50.97
2018-07-23T05:43:18.528Z,50.99
2018-07-23T05:44:22.332Z,50.45
2018-07-23T05:45:25.737Z,50.85
2018-07-23T05:46:29.176Z,50.50
2018-07-23T05:47:32.545Z,51.16
2018-07-23T05:48:35.994Z,51.68
2018-07-23T05:49:39.444Z,50.81
2018-07-23T05:50:42.838Z,51.42
2018-07-23T05:51:46.251Z,50.69
2018-07-23T05:52:49.660Z,51.29
2018-07-23T05:53:53.080Z,51.06
2018-07-23T05:54:56.685Z,50.61
2018-07-23T05:56:00.081Z,51.16
2018-07-23T05:57:03.470Z,51.06
2018-07-23T05:58:07.075Z,51.76
2018-07-23T05:59:10.531Z,51.54
2018-07-23T06:00:14.261Z,51.65
2018-07-23T06:01:17.778Z,51.57
2018-07-23T06:02:21.177Z,51.43
2018-07-23T06:03:24.693Z,52.29
2018-07-23T06:04:28.143Z,52.00
2018-07-23T06:05:31.552Z,51.86
2018-07-23T06:06:34.998Z,51.58
2018-07-23T06:07:38.441Z,52.55
2018-07-23T06:08:41.859Z,52.44
2018-07-23T06:09:45.288Z,52.62
2018-07-23T06:10:48.752Z,52.89
2018-07-23T06:11:52.286Z,51.91
2018-07-23T06:12:56.222Z,52.32
2018-07-23T06:13:59.638Z,52.04
2018-07-23T06:15:03.096Z,52.65
2018-07-23T06:16:06.656Z,52.77
2018-07-23T06:17:10.069Z,52.34
2018-07-23T06:18:13.478Z,52.55
2018-07-23T06:19:16.896Z,52.50
2018-07-23T06:20:20.368Z,52.05
2018-07-23T06:21:23.857Z,52.33
2018-07-23T06:22:27.327Z,52.51
2018-07-23T06:23:30.791Z,53.18
2018-07-23T06:24:34.286Z,52.54
2018-07-23T06:25:37.800Z,52.99
2018-07-23T06:26:41.268Z,53.41
2018-07-23T06:27:44.672Z,52.70
2018-07-23T06:28:48.065Z,52.43
2018-07-23T06:29:51.474Z,52.41
2018-07-23T06:30:54.900Z,52.80
2018-07-23T06:31:58.757Z,53.20
2018-07-23T06:33:02.177Z,53.04
2018-07-23T06:34:05.643Z,53.80
2018-07-23T06:35:09.179Z,53.44
2018-07-23T06:36:12.764Z,53.13
2018-07-23T06:37:16.172Z,53.02
2018-07-23T06:38:19.638Z,53.40
2018-07-23T06:39:23.052Z,53.05
2018-07-23T06:40:26.480Z,54.07
2018-07-23T06:41:30.014Z,53.97
2018-07-23T06:42:33.526Z,53.80
2018-07-23T06:43:37.104Z,54.11
2018-07-23T06:44:40.585Z,54.67
2018-07-23T06:45:44.019Z,54.07
2018-07-23T06:46:47.724Z,53.95
2018-07-23T06:47:51.136Z,54.00
2018-07-23T06:48:54.514Z,54.14
2018-07-23T06:49:57.919Z,54.34
2018-07-23T06:51:02.337Z,54.01
2018-07-23T06:52:05.818Z,54.29
2018-07-23T06:53:09.294Z,54.10
2018-07-23T06:54:12.743Z,53.96
2018-07-23T06:55:17.783Z,53.91
2018-07-23T06:56:24.354Z,53.79
2018-07-23T06:57:28.177Z,53.79
2018-07-23T06:58:31.772Z,54.09
2018-07-23T06:59:36.346Z,53.90
2018-07-23T07:00:40.185Z,54.02
2018-07-23T07:01:44.559Z,53.93
2018-07-23T07:02:48.110Z,54.41
2018-07-23T07:03:51.540Z,53.97
2018-07-23T07:04:54.960Z,53.90
2018-07-23T07:05:58.445Z,54.09
2018-07-23T07:07:01.942Z,54.01
2018-07-23T07:08:05.807Z,53.76
2018-07-23T07:09:10.385Z,54.23
2018-07-23T07:10:13.788Z,53.49
2018-07-23T07:11:23.533Z,53.90
2018-07-23T07:12:27.068Z,53.83
2018-07-23T07:13:30.605Z,53.76
2018-07-23T07:14:34.027Z,53.82
2018-07-23T07:15:37.506Z,54.12
2018-07-23T07:16:40.924Z,53.80
2018-07-23T07:17:44.716Z,53.46
2018-07-23T07:18:48.137Z,53.67
2018-07-23T07:19:51.933Z,53.53
2018-07-23T07:20:55.380Z,53.34
2018-07-23T07:21:58.782Z,53.21
2018-07-23T07:23:02.578Z,53.69
2018-07-23T07:24:06.347Z,53.21
2018-07-23T07:25:09.773Z,53.12
2018-07-23T07:26:13.169Z,53.30
2018-07-23T07:27:16.871Z,53.91
2018-07-23T07:28:21.608Z,53.00
2018-07-23T07:29:25.040Z,53.29
2018-07-23T07:30:28.435Z,53.50
2018-07-23T07:31:31.857Z,53.36
2018-07-23T07:32:35.296Z,53.64
2018-07-23T07:33:38.691Z,52.99
2018-07-23T07:34:42.272Z,53.78
2018-07-23T07:35:45.700Z,53.88
2018-07-23T07:36:49.124Z,53.30
2018-07-23T07:37:52.600Z,53.10
2018-07-23T07:38:56.010Z,53.55
2018-07-23T07:39:59.453Z,53.81
2018-07-23T07:41:02.884Z,53.53
2018-07-23T07:42:06.582Z,53.18
2018-07-23T07:43:10.039Z,53.28
2018-07-23T07:44:13.455Z,53.13
2018-07-23T07:45:17.078Z,53.62
2018-07-23T07:46:20.614Z,54.05
2018-07-23T07:47:24.017Z,54.19
2018-07-23T07:48:27.550Z,53.46
2018-07-23T07:49:30.998Z,53.97
2018-07-23T07:52:02.485Z,54.23
2018-07-23T07:53:05.885Z,53.98
2018-07-23T07:54:09.595Z,54.15
2018-07-23T07:55:13.021Z,54.17
2018-07-23T07:56:16.452Z,53.71
2018-07-23T07:57:19.901Z,54.13
2018-07-23T07:58:23.319Z,54.11
2018-07-23T07:59:26.727Z,54.38
2018-07-23T08:00:30.138Z,54.08
2018-07-23T08:01:33.578Z,53.70
2018-07-23T08:02:36.990Z,53.64
2018-07-23T08:03:40.480Z,53.87
2018-07-23T08:04:43.930Z,54.22
2018-07-23T08:05:47.361Z,54.50
2018-07-23T08:06:50.781Z,54.28
2018-07-23T08:07:54.247Z,54.07
2018-07-23T08:08:57.661Z,53.59
2018-07-23T08:10:01.083Z,54.02
2018-07-23T08:11:04.540Z,54.43
2018-07-23T08:12:08.307Z,54.09
2018-07-23T08:13:11.694Z,53.93
2018-07-23T08:14:15.137Z,54.47
2018-07-23T08:15:18.558Z,54.39
2018-07-23T08:16:21.960Z,54.50
2018-07-23T08:17:25.450Z,53.86
2018-07-23T08:18:28.912Z,53.86
2018-07-23T08:19:32.465Z,53.83
2018-07-23T08:20:35.975Z,54.53
2018-07-23T08:21:39.672Z,54.50
2018-07-23T08:22:43.144Z,53.75
2018-07-23T08:23:46.549Z,54.60
2018-07-23T08:24:50.010Z,53.74
2018-07-23T08:25:53.419Z,53.98
2018-07-23T08:26:56.866Z,54.53
2018-07-23T08:28:00.321Z,53.85
2018-07-23T08:29:03.843Z,54.09
2018-07-23T08:30:07.608Z,54.22
2018-07-23T08:31:11.012Z,54.04
2018-07-23T08:32:14.434Z,54.20
2018-07-23T08:33:17.964Z,53.80
2018-07-23T08:34:21.382Z,54.70
2018-07-23T08:35:24.797Z,54.00
2018-07-23T08:36:28.234Z,54.65
2018-07-23T08:37:31.620Z,54.68
2018-07-23T08:38:35.127Z,54.48
2018-07-23T08:39:38.548Z,53.73
2018-07-23T08:40:42.122Z,53.89
2018-07-23T08:41:45.579Z,54.06
2018-07-23T08:42:49.010Z,53.83
2018-07-23T08:43:52.481Z,54.26
2018-07-23T08:44:56.670Z,54.29
2018-07-23T08:46:00.085Z,54.57
2018-07-23T08:47:03.516Z,53.96
2018-07-23T08:48:07.178Z,53.87
2018-07-23T08:49:10.624Z,54.38
2018-07-23T08:50:14.025Z,54.75
2018-07-23T08:51:17.460Z,54.53
2018-07-23T08:52:20.836Z,54.61
2018-07-23T08:53:24.607Z,53.75
2018-07-23T08:54:28.589Z,54.54
2018-07-23T08:55:32.041Z,54.18
2018-07-23T08:56:35.426Z,54.50
2018-07-23T08:57:38.870Z,54.27
2018-07-23T08:58:42.262Z,53.71
2018-07-23T08:59:45.680Z,54.36
2018-07-23T09:00:49.364Z,53.56
2018-07-23T09:01:52.767Z,54.39
2018-07-23T09:02:56.187Z,54.47
2018-07-23T09:03:59.597Z,53.82
2018-07-23T09:05:03.020Z,53.94
2018-07-23T09:06:07.239Z,54.09
2018-07-23T09:07:10.634Z,53.90
2018-07-23T09:08:14.152Z,53.67
2018-07-23T09:09:17.574Z,54.17
2018-07-23T09:10:21.018Z,54.02
2018-07-23T09:11:24.464Z,54.71
2018-07-23T09:12:28.157Z,54.42
2018-07-23T09:13:31.587Z,54.71
2018-07-23T09:14:34.982Z,55.61
2018-07-23T09:15:38.417Z,56.29
2018-07-23T09:16:41.869Z,55.94
2018-07-23T09:17:45.399Z,55.63
2018-07-23T09:18:48.795Z,55.59
2018-07-23T09:19:52.320Z,56.11
2018-07-23T09:20:55.959Z,55.68
2018-07-23T09:21:59.455Z,56.37
2018-07-23T09:23:02.891Z,55.79
2018-07-23T09:24:06.349Z,56.75
2018-07-23T09:25:09.767Z,56.79
2018-07-23T09:26:13.589Z,56.56
2018-07-23T09:27:17.254Z,56.94
2018-07-23T09:28:20.964Z,56.84
2018-07-23T09:29:24.362Z,56.49
2018-07-23T09:30:33.085Z,56.13
2018-07-23T09:31:37.224Z,56.15
2018-07-23T09:32:40.667Z,56.26
2018-07-23T09:33:45.089Z,56.58
2018-07-23T09:34:48.756Z,55.89
2018-07-23T09:35:52.943Z,56.22
2018-07-23T09:36:57.167Z,56.63
2018-07-23T09:38:01.363Z,56.01
2018-07-23T09:39:08.170Z,56.84
2018-07-23T09:40:11.605Z,56.48
2018-07-23T09:41:15.072Z,56.31
2018-07-23T09:42:18.750Z,55.85
2018-07-23T09:43:22.202Z,56.11
2018-07-23T09:44:25.924Z,56.35
2018-07-23T09:45:29.713Z,55.79
2018-07-23T09:46:33.132Z,56.79
2018-07-23T09:47:36.733Z,55.92
2018-07-23T09:48:40.240Z,55.76
2018-07-23T09:49:43.919Z,55.85
2018-07-23T09:50:47.541Z,55.95
2018-07-23T09:51:51.068Z,56.02
2018-07-23T09:52:54.904Z,56.58
2018-07-23T09:53:58.354Z,55.79
2018-07-23T09:55:01.810Z,56.03
2018-07-23T09:56:05.309Z,56.54
2018-07-23T09:57:08.724Z,56.12
2018-07-23T09:58:12.163Z,56.25
2018-07-23T09:59:15.562Z,56.61
2018-07-23T10:00:24.353Z,56.08
2018-07-23T10:01:27.884Z,56.27
2018-07-23T10:02:31.312Z,56.14
2018-07-23T10:03:34.819Z,55.71
2018-07-23T10:04:38.240Z,56.42
2018-07-23T10:05:41.708Z,56.14
2018-07-23T10:06:45.138Z,56.06
2018-07-23T10:07:48.535Z,56.67
2018-07-23T10:08:51.970Z,56.49
2018-07-23T10:09:55.384Z,55.94
2018-07-23T10:10:58.849Z,55.55
2018-07-23T10:12:02.296Z,56.08
2018-07-23T10:13:05.757Z,56.54
2018-07-23T10:14:09.882Z,56.37
2018-07-23T10:15:13.427Z,56.46
2018-07-23T10:16:17.388Z,55.75
2018-07-23T10:17:20.935Z,55.60
2018-07-23T10:18:24.349Z,56.00
2018-07-23T10:19:27.761Z,56.10
2018-07-23T10:20:31.150Z,55.36
2018-07-23T10:21:34.538Z,56.03
2018-07-23T10:22:37.930Z,55.68
2018-07-23T10:23:41.328Z,55.58
2018-07-23T10:24:44.756Z,55.97
2018-07-23T10:25:48.213Z,55.87
2018-07-23T10:26:51.644Z,55.20
2018-07-23T10:27:55.057Z,56.15
2018-07-23T10:28:58.496Z,55.37
2018-07-23T10:30:03.838Z,55.58
2018-07-23T10:31:08.949Z,55.73
2018-07-23T10:32:12.934Z,55.99
2018-07-23T10:33:16.459Z,55.71
2018-07-23T10:34:19.925Z,55.52
2018-07-23T10:35:23.360Z,55.65
2018-07-23T10:36:26.897Z,55.59
2018-07-23T10:37:30.426Z,55.84
2018-07-23T10:38:33.850Z,55.99
2018-07-23T10:39:37.254Z,55.97
2018-07-23T10:40:40.683Z,55.31
2018-07-23T10:41:44.098Z,55.58
2018-07-23T10:42:47.846Z,55.62
2018-07-23T10:43:51.275Z,55.74
2018-07-23T10:44:55.304Z,55.78
2018-07-23T10:45:58.732Z,55.07
2018-07-23T10:47:05.682Z,55.88
2018-07-23T10:48:09.122Z,55.39
2018-07-23T10:49:12.545Z,55.82
2018-07-23T10:50:16.290Z,55.64
2018-07-23T10:51:19.983Z,55.45
2018-07-23T10:52:23.871Z,55.32
2018-07-23T10:53:27.569Z,55.65
2018-07-23T10:54:30.980Z,55.61
2018-07-23T10:55:34.420Z,55.05
2018-07-23T10:56:37.998Z,55.36
2018-07-23T10:57:41.393Z,55.13
2018-07-23T10:58:44.819Z,55.26
2018-07-23T10:59:48.242Z,55.65
2018-07-23T11:00:51.801Z,55.16
2018-07-23T11:01:55.309Z,55.65
2018-07-23T11:02:58.742Z,55.75
2018-07-23T11:04:02.163Z,54.73
2018-07-23T11:05:06.480Z,55.17
2018-07-23T11:06:09.907Z,55.57
2018-07-23T11:07:13.361Z,54.81
2018-07-23T11:08:16.815Z,55.31
2018-07-23T11:09:20.263Z,55.54
2018-07-23T11:10:23.777Z,55.22
2018-07-23T11:11:27.232Z,55.12
2018-07-23T11:12:30.647Z,55.09
2018-07-23T11:13:34.048Z,54.93
2018-07-23T11:14:37.491Z,54.94
2018-07-23T11:15:40.916Z,54.58
2018-07-23T11:16:44.305Z,54.95
2018-07-23T11:17:47.741Z,55.22
2018-07-23T11:18:51.183Z,55.37
2018-07-23T11:19:54.601Z,55.26
2018-07-23T11:20:58.027Z,55.35
2018-07-23T11:22:01.412Z,54.61
2018-07-23T11:23:05.068Z,54.97
2018-07-23T11:24:08.508Z,54.64
2018-07-23T11:25:39.876Z,55.31
2018-07-23T11:26:15.538Z,54.70
2018-07-23T11:27:18.888Z,54.96
2018-07-23T11:28:22.313Z,54.87
2018-07-23T11:29:25.766Z,55.04
2018-07-23T11:30:29.150Z,54.76
2018-07-23T11:31:32.596Z,54.95
2018-07-23T11:32:36.591Z,54.55
2018-07-23T11:33:40.039Z,54.90
2018-07-23T11:34:43.472Z,54.96
2018-07-23T11:35:46.871Z,55.62
2018-07-23T11:36:50.320Z,54.81
2018-07-23T11:37:53.760Z,55.30
2018-07-23T11:38:57.232Z,55.77
2018-07-23T11:40:00.671Z,55.53
2018-07-23T11:41:04.097Z,55.22
2018-07-23T11:42:07.584Z,55.37
2018-07-23T11:43:11.008Z,54.93
2018-07-23T11:44:14.460Z,55.39
2018-07-23T11:45:17.910Z,55.12
2018-07-23T11:46:24.984Z,55.42
2018-07-23T11:47:24.874Z,54.82
2018-07-23T11:48:28.260Z,55.18
2018-07-23T11:49:31.657Z,55.39
2018-07-23T11:50:35.785Z,55.54
2018-07-23T11:51:39.186Z,54.96
2018-07-23T11:52:42.612Z,54.68
2018-07-23T11:53:46.115Z,54.74
2018-07-23T11:54:49.522Z,55.56
2018-07-23T11:55:53.061Z,55.09
2018-07-23T11:56:56.529Z,55.62
2018-07-23T11:57:59.913Z,55.51
2018-07-23T11:59:03.337Z,55.47
2018-07-23T12:00:06.819Z,54.96
2018-07-23T12:01:10.247Z,55.42
2018-07-23T12:02:14.625Z,54.97
2018-07-23T12:03:18.041Z,55.49
2018-07-23T12:04:21.485Z,55.46
2018-07-23T12:05:24.911Z,55.74
2018-07-23T12:06:28.340Z,55.39
2018-07-23T12:07:31.765Z,55.31
2018-07-23T12:08:35.188Z,55.53
2018-07-23T12:09:38.610Z,55.15
2018-07-23T12:10:42.469Z,55.27
2018-07-23T12:11:45.985Z,55.99
2018-07-23T12:12:50.139Z,55.37
2018-07-23T12:13:53.531Z,55.13
2018-07-23T12:14:56.952Z,55.51
2018-07-23T12:16:00.362Z,56.06
2018-07-23T12:17:03.815Z,55.50
2018-07-23T12:18:07.246Z,55.47
2018-07-23T12:19:10.697Z,54.98
2018-07-23T12:20:14.125Z,55.57
2018-07-23T12:21:17.586Z,54.92
2018-07-23T12:22:21.008Z,55.26
2018-07-23T12:23:25.387Z,55.09
2018-07-23T12:24:28.794Z,55.22
2018-07-23T12:25:32.195Z,55.54
2018-07-23T12:26:35.635Z,55.29
2018-07-23T12:27:39.060Z,55.90
2018-07-23T12:28:42.494Z,55.56
2018-07-23T12:29:45.910Z,55.23
2018-07-23T12:30:49.387Z,55.74
2018-07-23T12:31:52.813Z,55.72
2018-07-23T12:32:56.210Z,55.22
2018-07-23T12:33:59.753Z,55.23
2018-07-23T12:35:03.195Z,55.87
2018-07-23T12:36:07.141Z,55.37
2018-07-23T12:37:10.615Z,55.24
2018-07-23T12:38:14.056Z,56.23
2018-07-23T12:39:18.160Z,55.88
2018-07-23T12:40:21.714Z,55.80
2018-07-23T12:41:25.138Z,56.19
2018-07-23T12:42:28.591Z,56.49
2018-07-23T12:43:32.107Z,55.46
2018-07-23T12:44:35.551Z,55.94
2018-07-23T12:45:38.969Z,56.14
2018-07-23T12:46:42.386Z,55.90
2018-07-23T12:47:46.011Z,56.52
2018-07-23T12:48:49.428Z,55.89
2018-07-23T12:49:52.840Z,55.51
2018-07-23T12:50:57.146Z,55.76
2018-07-23T12:52:00.552Z,55.46
2018-07-23T12:53:06.065Z,56.24
2018-07-23T12:54:09.674Z,55.56
2018-07-23T12:55:14.189Z,56.10
2018-07-23T12:56:17.673Z,55.58
2018-07-23T12:57:21.090Z,55.39
2018-07-23T12:58:25.405Z,55.92
2018-07-23T12:59:28.803Z,55.87
2018-07-23T13:00:32.177Z,56.07
2018-07-23T13:01:35.625Z,55.59
2018-07-23T13:02:39.299Z,55.94
2018-07-23T13:03:42.755Z,55.35
2018-07-23T13:04:46.327Z,55.76
2018-07-23T13:05:49.832Z,55.89
2018-07-23T13:06:53.355Z,56.27
2018-07-23T13:07:56.759Z,55.85
2018-07-23T13:09:00.513Z,56.20
2018-07-23T13:10:05.065Z,56.18
2018-07-23T13:11:09.472Z,55.66
2018-07-23T13:12:13.251Z,55.44
2018-07-23T13:13:16.777Z,55.56
2018-07-23T13:14:20.227Z,55.11
2018-07-23T13:15:23.682Z,55.60
2018-07-23T13:16:27.078Z,55.27
2018-07-23T13:17:30.504Z,55.52
2018-07-23T13:18:33.913Z,55.26
2018-07-23T13:19:37.381Z,55.57
2018-07-23T13:20:40.801Z,55.01
2018-07-23T13:21:44.241Z,55.79
2018-07-23T13:22:48.513Z,55.20
2018-07-23T13:23:51.948Z,55.91
2018-07-23T13:24:55.614Z,56.11
2018-07-23T13:25:59.747Z,55.66
2018-07-23T13:27:03.207Z,55.58
2018-07-23T13:28:07.356Z,55.44
2018-07-23T13:29:10.928Z,55.69
2018-07-23T13:30:14.357Z,55.22
2018-07-23T13:31:17.789Z,55.64
2018-07-23T13:32:21.254Z,55.92
2018-07-23T13:33:24.674Z,55.58
2018-07-23T13:34:28.147Z,55.92
2018-07-23T13:35:31.582Z,55.53
2018-07-23T13:36:34.979Z,55.81
2018-07-23T13:37:38.516Z,55.92
2018-07-23T13:38:41.918Z,55.17
2018-07-23T13:39:45.372Z,55.62